sensor_id;sensor_type;location;lat;lon;timestamp;pressure;altitude;pressure_sealevel;temperature;humidity
34235;BME280;20500;49.856;20.290;2023-02-13T00:01:17;100916.30;;;1.07;75.70
34235;BME280;20500;49.856;20.290;2023-02-13T00:04:22;100908.98;;;1.07;75.64
34235;BME280;20500;49.856;20.290;2023-02-13T00:07:28;100908.89;;;1.05;75.71
34235;BME280;20500;49.856;20.290;2023-02-13T00:10:33;100906.30;;;1.04;75.67
34235;BME280;20500;49.856;20.290;2023-02-13T00:13:39;100902.48;;;1.05;75.75
34235;BME280;20500;49.856;20.290;2023-02-13T00:16:45;100910.99;;;1.06;75.82
34235;BME280;20500;49.856;20.290;2023-02-13T00:19:50;100912.62;;;1.05;75.83
34235;BME280;20500;49.856;20.290;2023-02-13T00:22:56;100909.52;;;1.07;75.89
34235;BME280;20500;49.856;20.290;2023-02-13T00:26:07;100908.02;;;1.08;75.94
34235;BME280;20500;49.856;20.290;2023-02-13T00:29:14;100903.74;;;1.11;75.93
34235;BME280;20500;49.856;20.290;2023-02-13T00:32:20;100900.66;;;1.12;75.94
34235;BME280;20500;49.856;20.290;2023-02-13T00:35:26;100894.48;;;1.11;76.02
34235;BME280;20500;49.856;20.290;2023-02-13T00:38:31;100889.00;;;1.10;75.92
34235;BME280;20500;49.856;20.290;2023-02-13T00:41:38;100886.75;;;1.08;76.09
34235;BME280;20500;49.856;20.290;2023-02-13T00:44:44;100877.63;;;1.08;76.14
34235;BME280;20500;49.856;20.290;2023-02-13T00:47:51;100881.52;;;1.09;76.15
34235;BME280;20500;49.856;20.290;2023-02-13T00:50:57;100883.27;;;1.13;76.28
34235;BME280;20500;49.856;20.290;2023-02-13T00:54:04;100883.69;;;1.19;76.34
34235;BME280;20500;49.856;20.290;2023-02-13T00:57:11;100884.30;;;1.25;76.25
34235;BME280;20500;49.856;20.290;2023-02-13T01:00:18;100883.08;;;1.28;76.32
34235;BME280;20500;49.856;20.290;2023-02-13T01:03:25;100877.73;;;1.31;76.28
34235;BME280;20500;49.856;20.290;2023-02-13T01:06:31;100868.05;;;1.34;76.21
34235;BME280;20500;49.856;20.290;2023-02-13T01:09:38;100861.27;;;1.34;76.20
34235;BME280;20500;49.856;20.290;2023-02-13T01:12:44;100854.60;;;1.35;76.37
34235;BME280;20500;49.856;20.290;2023-02-13T01:15:49;100850.92;;;1.40;76.39
34235;BME280;20500;49.856;20.290;2023-02-13T01:18:55;100849.02;;;1.46;76.45
34235;BME280;20500;49.856;20.290;2023-02-13T01:22:01;100850.25;;;1.54;76.64
34235;BME280;20500;49.856;20.290;2023-02-13T01:25:06;100847.59;;;1.60;76.61
34235;BME280;20500;49.856;20.290;2023-02-13T01:28:13;100848.58;;;1.65;76.56
34235;BME280;20500;49.856;20.290;2023-02-13T01:31:17;100843.38;;;1.71;76.64
34235;BME280;20500;49.856;20.290;2023-02-13T01:34:24;100836.35;;;1.76;76.67
34235;BME280;20500;49.856;20.290;2023-02-13T01:37:30;100829.05;;;1.78;76.61
34235;BME280;20500;49.856;20.290;2023-02-13T01:40:35;100828.30;;;1.82;76.62
34235;BME280;20500;49.856;20.290;2023-02-13T01:43:52;100824.77;;;1.85;76.68
34235;BME280;20500;49.856;20.290;2023-02-13T01:46:59;100824.09;;;1.87;76.65
34235;BME280;20500;49.856;20.290;2023-02-13T01:50:08;100825.91;;;1.89;76.68
34235;BME280;20500;49.856;20.290;2023-02-13T01:53:18;100826.12;;;1.92;76.67
34235;BME280;20500;49.856;20.290;2023-02-13T01:56:30;100820.39;;;1.96;76.72
34235;BME280;20500;49.856;20.290;2023-02-13T01:59:43;100815.78;;;1.98;76.74
34235;BME280;20500;49.856;20.290;2023-02-13T02:02:56;100811.79;;;1.99;76.59
34235;BME280;20500;49.856;20.290;2023-02-13T02:06:03;100807.63;;;1.94;76.45
34235;BME280;20500;49.856;20.290;2023-02-13T02:09:13;100804.05;;;1.87;76.58
34235;BME280;20500;49.856;20.290;2023-02-13T02:12:23;100803.56;;;1.89;76.87
34235;BME280;20500;49.856;20.290;2023-02-13T02:15:31;100797.75;;;1.91;76.73
34235;BME280;20500;49.856;20.290;2023-02-13T02:18:35;100790.17;;;1.88;76.77
34235;BME280;20500;49.856;20.290;2023-02-13T02:21:57;100790.45;;;1.90;76.82
34235;BME280;20500;49.856;20.290;2023-02-13T02:25:21;100792.09;;;1.92;76.88
34235;BME280;20500;49.856;20.290;2023-02-13T02:29:09;100787.60;;;1.96;76.88
34235;BME280;20500;49.856;20.290;2023-02-13T02:32:32;100790.38;;;2.01;76.94
34235;BME280;20500;49.856;20.290;2023-02-13T02:35:48;100791.98;;;2.01;76.79
34235;BME280;20500;49.856;20.290;2023-02-13T02:39:04;100789.56;;;1.87;76.58
34235;BME280;20500;49.856;20.290;2023-02-13T02:42:20;100789.05;;;1.80;76.79
34235;BME280;20500;49.856;20.290;2023-02-13T02:45:36;100789.91;;;1.80;76.94
34235;BME280;20500;49.856;20.290;2023-02-13T02:48:49;100793.40;;;1.85;76.93
34235;BME280;20500;49.856;20.290;2023-02-13T02:52:19;100793.62;;;1.91;77.09
34235;BME280;20500;49.856;20.290;2023-02-13T02:55:34;100794.50;;;1.98;77.09
34235;BME280;20500;49.856;20.290;2023-02-13T02:58:44;100794.48;;;2.05;77.13
34235;BME280;20500;49.856;20.290;2023-02-13T03:02:11;100789.11;;;2.08;77.07
34235;BME280;20500;49.856;20.290;2023-02-13T03:05:47;100787.18;;;2.10;77.01
34235;BME280;20500;49.856;20.290;2023-02-13T03:09:15;100787.66;;;2.14;76.98
34235;BME280;20500;49.856;20.290;2023-02-13T03:12:46;100792.23;;;2.19;77.03
34235;BME280;20500;49.856;20.290;2023-02-13T03:16:14;100791.98;;;2.24;77.07
34235;BME280;20500;49.856;20.290;2023-02-13T03:19:49;100791.04;;;2.28;77.07
34235;BME280;20500;49.856;20.290;2023-02-13T03:23:18;100792.61;;;2.28;77.01
34235;BME280;20500;49.856;20.290;2023-02-13T03:26:37;100797.00;;;2.30;77.13
34235;BME280;20500;49.856;20.290;2023-02-13T03:30:00;100801.78;;;2.34;77.14
34235;BME280;20500;49.856;20.290;2023-02-13T03:33:22;100802.46;;;2.37;77.10
34235;BME280;20500;49.856;20.290;2023-02-13T03:36:39;100800.90;;;2.43;77.04
34235;BME280;20500;49.856;20.290;2023-02-13T03:40:09;100801.92;;;2.47;77.07
34235;BME280;20500;49.856;20.290;2023-02-13T03:43:19;100801.69;;;2.51;76.96
34235;BME280;20500;49.856;20.290;2023-02-13T03:46:27;100806.46;;;2.56;77.10
34235;BME280;20500;49.856;20.290;2023-02-13T03:49:38;100806.25;;;2.59;77.08
34235;BME280;20500;49.856;20.290;2023-02-13T03:53:07;100805.20;;;2.62;77.06
34235;BME280;20500;49.856;20.290;2023-02-13T03:56:16;100799.30;;;2.65;77.12
34235;BME280;20500;49.856;20.290;2023-02-13T03:59:42;100800.94;;;2.67;77.11
34235;BME280;20500;49.856;20.290;2023-02-13T04:02:56;100802.55;;;2.70;77.05
34235;BME280;20500;49.856;20.290;2023-02-13T04:06:06;100801.61;;;2.74;76.97
34235;BME280;20500;49.856;20.290;2023-02-13T04:09:14;100802.54;;;2.77;77.06
34235;BME280;20500;49.856;20.290;2023-02-13T04:12:28;100802.06;;;2.78;77.14
34235;BME280;20500;49.856;20.290;2023-02-13T04:15:39;100800.47;;;2.81;77.11
34235;BME280;20500;49.856;20.290;2023-02-13T04:18:48;100797.77;;;2.81;77.00
34235;BME280;20500;49.856;20.290;2023-02-13T04:21:59;100794.47;;;2.80;76.99
34235;BME280;20500;49.856;20.290;2023-02-13T04:25:07;100794.05;;;2.78;76.92
34235;BME280;20500;49.856;20.290;2023-02-13T04:28:13;100795.30;;;2.72;76.88
34235;BME280;20500;49.856;20.290;2023-02-13T04:31:17;100794.23;;;2.65;76.93
34235;BME280;20500;49.856;20.290;2023-02-13T04:34:24;100797.09;;;2.56;76.95
34235;BME280;20500;49.856;20.290;2023-02-13T04:37:28;100794.92;;;2.48;76.96
34235;BME280;20500;49.856;20.290;2023-02-13T04:40:35;100797.23;;;2.44;77.14
34235;BME280;20500;49.856;20.290;2023-02-13T04:43:39;100798.19;;;2.47;77.15
34235;BME280;20500;49.856;20.290;2023-02-13T04:46:46;100802.04;;;2.49;77.11
34235;BME280;20500;49.856;20.290;2023-02-13T04:49:52;100805.65;;;2.48;76.92
34235;BME280;20500;49.856;20.290;2023-02-13T04:52:58;100809.99;;;2.47;76.95
34235;BME280;20500;49.856;20.290;2023-02-13T04:56:05;100808.92;;;2.44;76.96
34235;BME280;20500;49.856;20.290;2023-02-13T04:59:12;100816.69;;;2.42;76.83
34235;BME280;20500;49.856;20.290;2023-02-13T05:02:18;100821.30;;;2.43;77.12
34235;BME280;20500;49.856;20.290;2023-02-13T05:05:22;100821.24;;;2.45;77.08
34235;BME280;20500;49.856;20.290;2023-02-13T05:08:29;100821.10;;;2.47;77.26
34235;BME280;20500;49.856;20.290;2023-02-13T05:11:35;100823.29;;;2.50;77.23
34235;BME280;20500;49.856;20.290;2023-02-13T05:14:41;100825.82;;;2.52;77.13
34235;BME280;20500;49.856;20.290;2023-02-13T05:17:47;100821.66;;;2.56;77.21
34235;BME280;20500;49.856;20.290;2023-02-13T05:20:54;100822.53;;;2.60;77.18
34235;BME280;20500;49.856;20.290;2023-02-13T05:24:18;100819.42;;;2.61;77.20
34235;BME280;20500;49.856;20.290;2023-02-13T05:27:24;100814.55;;;2.61;77.40
34235;BME280;20500;49.856;20.290;2023-02-13T05:30:29;100817.98;;;2.64;77.65
34235;BME280;20500;49.856;20.290;2023-02-13T05:33:35;100820.48;;;2.67;77.74
34235;BME280;20500;49.856;20.290;2023-02-13T05:36:40;100821.44;;;2.69;77.71
34235;BME280;20500;49.856;20.290;2023-02-13T05:39:47;100821.55;;;2.67;77.88
34235;BME280;20500;49.856;20.290;2023-02-13T05:42:54;100818.67;;;2.67;77.92
34235;BME280;20500;49.856;20.290;2023-02-13T05:46:05;100819.74;;;2.67;78.05
34235;BME280;20500;49.856;20.290;2023-02-13T05:49:13;100823.44;;;2.69;78.16
34235;BME280;20500;49.856;20.290;2023-02-13T05:52:20;100822.98;;;2.70;78.27
34235;BME280;20500;49.856;20.290;2023-02-13T05:55:26;100821.09;;;2.72;78.29
34235;BME280;20500;49.856;20.290;2023-02-13T05:58:32;100823.69;;;2.74;78.30
34235;BME280;20500;49.856;20.290;2023-02-13T06:01:39;100824.88;;;2.75;78.38
34235;BME280;20500;49.856;20.290;2023-02-13T06:04:45;100825.94;;;2.75;78.43
34235;BME280;20500;49.856;20.290;2023-02-13T06:07:51;100827.80;;;2.74;78.34
34235;BME280;20500;49.856;20.290;2023-02-13T06:10:58;100828.85;;;2.74;78.61
34235;BME280;20500;49.856;20.290;2023-02-13T06:14:04;100827.58;;;2.75;78.55
34235;BME280;20500;49.856;20.290;2023-02-13T06:17:11;100829.13;;;2.76;78.65
34235;BME280;20500;49.856;20.290;2023-02-13T06:20:17;100830.40;;;2.78;78.80
34235;BME280;20500;49.856;20.290;2023-02-13T06:23:24;100831.99;;;2.82;78.79
34235;BME280;20500;49.856;20.290;2023-02-13T06:26:30;100834.70;;;2.84;78.84
34235;BME280;20500;49.856;20.290;2023-02-13T06:29:36;100830.77;;;2.87;78.98
34235;BME280;20500;49.856;20.290;2023-02-13T06:32:43;100831.86;;;2.90;78.97
34235;BME280;20500;49.856;20.290;2023-02-13T06:35:51;100836.48;;;2.94;79.09
34235;BME280;20500;49.856;20.290;2023-02-13T06:38:57;100836.35;;;2.96;79.13
34235;BME280;20500;49.856;20.290;2023-02-13T06:42:04;100838.06;;;2.97;79.13
34235;BME280;20500;49.856;20.290;2023-02-13T06:45:10;100843.19;;;2.99;79.24
34235;BME280;20500;49.856;20.290;2023-02-13T06:48:17;100846.04;;;3.02;79.35
34235;BME280;20500;49.856;20.290;2023-02-13T06:51:23;100847.70;;;3.07;79.49
34235;BME280;20500;49.856;20.290;2023-02-13T06:54:28;100847.36;;;3.10;79.48
34235;BME280;20500;49.856;20.290;2023-02-13T06:57:50;100848.38;;;3.11;79.56
34235;BME280;20500;49.856;20.290;2023-02-13T07:00:57;100851.30;;;3.13;79.75
34235;BME280;20500;49.856;20.290;2023-02-13T07:04:04;100852.32;;;3.17;79.70
34235;BME280;20500;49.856;20.290;2023-02-13T07:07:08;100847.38;;;3.22;79.81
34235;BME280;20500;49.856;20.290;2023-02-13T07:10:15;100846.40;;;3.26;79.88
34235;BME280;20500;49.856;20.290;2023-02-13T07:13:21;100848.48;;;3.27;79.91
34235;BME280;20500;49.856;20.290;2023-02-13T07:16:26;100848.12;;;3.30;79.98
34235;BME280;20500;49.856;20.290;2023-02-13T07:19:32;100846.92;;;3.33;80.13
34235;BME280;20500;49.856;20.290;2023-02-13T07:22:38;100851.21;;;3.33;80.13
34235;BME280;20500;49.856;20.290;2023-02-13T07:25:45;100854.09;;;3.36;80.28
34235;BME280;20500;49.856;20.290;2023-02-13T07:28:51;100852.52;;;3.38;80.30
34235;BME280;20500;49.856;20.290;2023-02-13T07:32:14;100857.79;;;3.40;80.34
34235;BME280;20500;49.856;20.290;2023-02-13T07:35:18;100853.21;;;3.41;80.31
34235;BME280;20500;49.856;20.290;2023-02-13T07:38:25;100848.97;;;3.43;80.39
34235;BME280;20500;49.856;20.290;2023-02-13T07:41:31;100850.77;;;3.43;80.41
34235;BME280;20500;49.856;20.290;2023-02-13T07:44:36;100852.21;;;3.46;80.42
34235;BME280;20500;49.856;20.290;2023-02-13T07:47:42;100851.71;;;3.49;80.45
34235;BME280;20500;49.856;20.290;2023-02-13T07:50:48;100849.48;;;3.50;80.62
34235;BME280;20500;49.856;20.290;2023-02-13T07:53:55;100846.34;;;3.51;80.63
34235;BME280;20500;49.856;20.290;2023-02-13T07:57:02;100847.85;;;3.53;80.66
34235;BME280;20500;49.856;20.290;2023-02-13T08:00:10;100851.05;;;3.53;80.72
34235;BME280;20500;49.856;20.290;2023-02-13T08:03:17;100852.31;;;3.56;80.91
34235;BME280;20500;49.856;20.290;2023-02-13T08:06:23;100851.52;;;3.63;80.96
34235;BME280;20500;49.856;20.290;2023-02-13T08:09:30;100848.80;;;3.69;81.04
34235;BME280;20500;49.856;20.290;2023-02-13T08:12:54;100841.64;;;3.75;81.11
34235;BME280;20500;49.856;20.290;2023-02-13T08:16:00;100837.66;;;3.81;81.13
34235;BME280;20500;49.856;20.290;2023-02-13T08:19:04;100831.23;;;3.86;81.25
34235;BME280;20500;49.856;20.290;2023-02-13T08:22:11;100826.83;;;3.90;81.16
34235;BME280;20500;49.856;20.290;2023-02-13T08:25:15;100823.15;;;3.95;81.37
34235;BME280;20500;49.856;20.290;2023-02-13T08:28:22;100825.77;;;4.02;81.47
34235;BME280;20500;49.856;20.290;2023-02-13T08:31:27;100826.90;;;4.09;81.53
34235;BME280;20500;49.856;20.290;2023-02-13T08:34:33;100825.68;;;4.17;81.58
34235;BME280;20500;49.856;20.290;2023-02-13T08:37:40;100826.78;;;4.25;81.66
34235;BME280;20500;49.856;20.290;2023-02-13T08:40:44;100823.70;;;4.34;81.76
34235;BME280;20500;49.856;20.290;2023-02-13T08:43:52;100822.13;;;4.42;81.79
34235;BME280;20500;49.856;20.290;2023-02-13T08:46:58;100823.35;;;4.48;81.82
34235;BME280;20500;49.856;20.290;2023-02-13T08:50:09;100821.55;;;4.56;81.75
34235;BME280;20500;49.856;20.290;2023-02-13T08:53:15;100824.98;;;4.64;81.74
34235;BME280;20500;49.856;20.290;2023-02-13T08:56:22;100827.09;;;4.73;81.90
34235;BME280;20500;49.856;20.290;2023-02-13T08:59:28;100827.20;;;4.79;81.65
34235;BME280;20500;49.856;20.290;2023-02-13T09:02:34;100825.99;;;4.81;81.49
34235;BME280;20500;49.856;20.290;2023-02-13T09:05:41;100824.89;;;4.81;81.53
34235;BME280;20500;49.856;20.290;2023-02-13T09:08:47;100823.33;;;4.83;81.55
34235;BME280;20500;49.856;20.290;2023-02-13T09:11:53;100821.05;;;4.87;81.54
34235;BME280;20500;49.856;20.290;2023-02-13T09:15:01;100818.45;;;4.92;81.53
34235;BME280;20500;49.856;20.290;2023-02-13T09:18:08;100816.63;;;4.95;81.56
34235;BME280;20500;49.856;20.290;2023-02-13T09:21:14;100819.34;;;5.03;81.67
34235;BME280;20500;49.856;20.290;2023-02-13T09:24:21;100812.95;;;5.09;81.63
34235;BME280;20500;49.856;20.290;2023-02-13T09:27:27;100803.42;;;5.14;81.44
34235;BME280;20500;49.856;20.290;2023-02-13T09:30:32;100798.86;;;5.21;81.66
34235;BME280;20500;49.856;20.290;2023-02-13T09:33:39;100801.31;;;5.27;81.53
34235;BME280;20500;49.856;20.290;2023-02-13T09:36:45;100803.55;;;5.33;81.56
34235;BME280;20500;49.856;20.290;2023-02-13T09:39:52;100799.46;;;5.40;81.40
34235;BME280;20500;49.856;20.290;2023-02-13T09:43:06;100800.40;;;5.50;81.57
34235;BME280;20500;49.856;20.290;2023-02-13T09:46:16;100805.16;;;5.57;81.34
34235;BME280;20500;49.856;20.290;2023-02-13T09:49:27;100809.59;;;5.65;81.48
34235;BME280;20500;49.856;20.290;2023-02-13T09:52:36;100807.45;;;5.70;81.19
34235;BME280;20500;49.856;20.290;2023-02-13T09:55:47;100808.73;;;5.75;81.26
34235;BME280;20500;49.856;20.290;2023-02-13T09:59:01;100804.11;;;5.77;81.15
34235;BME280;20500;49.856;20.290;2023-02-13T10:02:22;100804.76;;;5.78;81.08
34235;BME280;20500;49.856;20.290;2023-02-13T10:05:45;100804.72;;;5.83;81.17
34235;BME280;20500;49.856;20.290;2023-02-13T10:09:03;100801.98;;;5.92;81.13
34235;BME280;20500;49.856;20.290;2023-02-13T10:12:23;100808.70;;;6.01;81.23
34235;BME280;20500;49.856;20.290;2023-02-13T10:15:39;100810.08;;;6.02;80.88
34235;BME280;20500;49.856;20.290;2023-02-13T10:18:51;100807.09;;;6.01;80.58
34235;BME280;20500;49.856;20.290;2023-02-13T10:22:00;100797.27;;;6.05;80.65
34235;BME280;20500;49.856;20.290;2023-02-13T10:25:14;100790.64;;;6.12;80.82
34235;BME280;20500;49.856;20.290;2023-02-13T10:28:29;100779.05;;;6.20;80.69
34235;BME280;20500;49.856;20.290;2023-02-13T10:31:37;100769.09;;;6.27;80.58
34235;BME280;20500;49.856;20.290;2023-02-13T10:34:45;100758.72;;;6.36;80.55
34235;BME280;20500;49.856;20.290;2023-02-13T10:37:55;100756.23;;;6.45;80.53
34235;BME280;20500;49.856;20.290;2023-02-13T10:41:23;100753.20;;;6.55;80.39
34235;BME280;20500;49.856;20.290;2023-02-13T10:44:43;100752.42;;;6.60;80.24
34235;BME280;20500;49.856;20.290;2023-02-13T10:48:04;100747.30;;;6.64;80.19
34235;BME280;20500;49.856;20.290;2023-02-13T10:51:15;100742.27;;;6.68;80.00
34235;BME280;20500;49.856;20.290;2023-02-13T10:54:36;100741.80;;;6.69;79.78
34235;BME280;20500;49.856;20.290;2023-02-13T10:58:05;100740.02;;;6.71;79.72
34235;BME280;20500;49.856;20.290;2023-02-13T11:01:19;100734.20;;;6.74;79.74
34235;BME280;20500;49.856;20.290;2023-02-13T11:04:27;100737.19;;;6.76;79.66
34235;BME280;20500;49.856;20.290;2023-02-13T11:07:35;100731.63;;;6.75;79.45
34235;BME280;20500;49.856;20.290;2023-02-13T11:10:43;100725.30;;;6.73;79.32
34235;BME280;20500;49.856;20.290;2023-02-13T11:14:08;100731.46;;;6.70;79.27
34235;BME280;20500;49.856;20.290;2023-02-13T11:17:17;100725.06;;;6.69;79.19
34235;BME280;20500;49.856;20.290;2023-02-13T11:20:28;100720.79;;;6.68;79.24
34235;BME280;20500;49.856;20.290;2023-02-13T11:23:39;100717.98;;;6.69;79.18
34235;BME280;20500;49.856;20.290;2023-02-13T11:26:51;100709.98;;;6.73;79.15
34235;BME280;20500;49.856;20.290;2023-02-13T11:30:00;100702.97;;;6.81;79.21
34235;BME280;20500;49.856;20.290;2023-02-13T11:33:22;100704.91;;;6.94;79.24
34235;BME280;20500;49.856;20.290;2023-02-13T11:36:30;100709.76;;;7.03;78.95
34235;BME280;20500;49.856;20.290;2023-02-13T11:39:37;100709.64;;;7.05;78.70
34235;BME280;20500;49.856;20.290;2023-02-13T11:42:44;100712.30;;;7.03;78.61
34235;BME280;20500;49.856;20.290;2023-02-13T11:46:03;100719.68;;;6.99;78.49
34235;BME280;20500;49.856;20.290;2023-02-13T11:49:16;100722.27;;;6.93;78.44
34235;BME280;20500;49.856;20.290;2023-02-13T11:52:27;100723.70;;;6.84;78.36
34235;BME280;20500;49.856;20.290;2023-02-13T11:55:35;100724.28;;;6.74;78.31
34235;BME280;20500;49.856;20.290;2023-02-13T11:58:43;100733.45;;;6.68;78.30
34235;BME280;20500;49.856;20.290;2023-02-13T12:02:02;100726.44;;;6.65;78.35
34235;BME280;20500;49.856;20.290;2023-02-13T12:05:18;100723.09;;;6.64;78.34
34235;BME280;20500;49.856;20.290;2023-02-13T12:08:26;100712.65;;;6.66;78.46
34235;BME280;20500;49.856;20.290;2023-02-13T12:11:38;100706.31;;;6.69;78.36
34235;BME280;20500;49.856;20.290;2023-02-13T12:14:47;100707.49;;;6.74;78.29
34235;BME280;20500;49.856;20.290;2023-02-13T12:18:03;100701.64;;;6.75;78.00
34235;BME280;20500;49.856;20.290;2023-02-13T12:21:25;100699.23;;;6.74;77.89
34235;BME280;20500;49.856;20.290;2023-02-13T12:24:44;100695.91;;;6.75;77.93
34235;BME280;20500;49.856;20.290;2023-02-13T12:28:00;100701.34;;;6.75;77.69
34235;BME280;20500;49.856;20.290;2023-02-13T12:35:13;100699.77;;;6.60;77.66
34235;BME280;20500;49.856;20.290;2023-02-13T12:38:41;100706.06;;;6.51;77.66
34235;BME280;20500;49.856;20.290;2023-02-13T12:41:59;100706.52;;;6.45;77.51
34235;BME280;20500;49.856;20.290;2023-02-13T12:45:27;100708.36;;;6.40;77.58
34235;BME280;20500;49.856;20.290;2023-02-13T12:48:42;100706.52;;;6.35;77.57
34235;BME280;20500;49.856;20.290;2023-02-13T12:52:02;100706.42;;;6.31;77.59
34235;BME280;20500;49.856;20.290;2023-02-13T12:55:28;100707.83;;;6.25;77.68
34235;BME280;20500;49.856;20.290;2023-02-13T12:59:01;100703.20;;;6.19;77.58
34235;BME280;20500;49.856;20.290;2023-02-13T13:02:46;100703.79;;;6.16;77.58
34235;BME280;20500;49.856;20.290;2023-02-13T13:06:15;100707.70;;;6.09;77.58
34235;BME280;20500;49.856;20.290;2023-02-13T13:09:37;100714.01;;;6.07;77.75
34235;BME280;20500;49.856;20.290;2023-02-13T13:12:53;100712.27;;;6.08;77.85
34235;BME280;20500;49.856;20.290;2023-02-13T13:16:07;100707.09;;;6.13;77.78
34235;BME280;20500;49.856;20.290;2023-02-13T13:19:28;100695.02;;;6.18;77.72
34235;BME280;20500;49.856;20.290;2023-02-13T13:22:40;100689.00;;;6.19;77.61
34235;BME280;20500;49.856;20.290;2023-02-13T13:25:55;100691.52;;;6.19;77.62
34235;BME280;20500;49.856;20.290;2023-02-13T13:29:08;100699.30;;;6.18;77.54
34235;BME280;20500;49.856;20.290;2023-02-13T13:32:19;100699.95;;;6.17;77.49
34235;BME280;20500;49.856;20.290;2023-02-13T13:35:26;100692.47;;;6.16;77.52
34235;BME280;20500;49.856;20.290;2023-02-13T13:38:40;100687.95;;;6.16;77.47
34235;BME280;20500;49.856;20.290;2023-02-13T13:41:52;100680.84;;;6.17;77.58
34235;BME280;20500;49.856;20.290;2023-02-13T13:45:27;100682.00;;;6.20;77.47
34235;BME280;20500;49.856;20.290;2023-02-13T13:48:54;100679.91;;;6.24;77.57
34235;BME280;20500;49.856;20.290;2023-02-13T13:52:25;100684.09;;;6.28;77.48
34235;BME280;20500;49.856;20.290;2023-02-13T13:56:05;100681.07;;;6.28;77.44
34235;BME280;20500;49.856;20.290;2023-02-13T13:59:19;100680.11;;;6.29;77.33
34235;BME280;20500;49.856;20.290;2023-02-13T14:02:48;100675.61;;;6.28;77.33
34235;BME280;20500;49.856;20.290;2023-02-13T14:06:04;100668.31;;;6.27;77.29
34235;BME280;20500;49.856;20.290;2023-02-13T14:12:46;100664.00;;;6.23;77.50
34235;BME280;20500;49.856;20.290;2023-02-13T14:15:54;100663.81;;;6.23;77.29
34235;BME280;20500;49.856;20.290;2023-02-13T14:19:00;100667.27;;;6.17;77.29
34235;BME280;20500;49.856;20.290;2023-02-13T14:22:26;100666.49;;;6.13;77.31
34235;BME280;20500;49.856;20.290;2023-02-13T14:25:36;100666.91;;;6.10;77.39
34235;BME280;20500;49.856;20.290;2023-02-13T14:28:53;100661.90;;;6.10;77.55
34235;BME280;20500;49.856;20.290;2023-02-13T14:32:12;100661.04;;;6.12;77.52
34235;BME280;20500;49.856;20.290;2023-02-13T14:35:25;100652.87;;;6.05;77.40
34235;BME280;20500;49.856;20.290;2023-02-13T14:38:32;100652.44;;;5.97;77.33
34235;BME280;20500;49.856;20.290;2023-02-13T14:42:00;100652.41;;;5.92;77.40
34235;BME280;20500;49.856;20.290;2023-02-13T14:45:14;100649.59;;;5.83;77.46
34235;BME280;20500;49.856;20.290;2023-02-13T14:48:24;100638.27;;;5.81;77.58
34235;BME280;20500;49.856;20.290;2023-02-13T14:51:37;100630.87;;;5.78;77.65
34235;BME280;20500;49.856;20.290;2023-02-13T14:54:47;100627.59;;;5.76;77.66
34235;BME280;20500;49.856;20.290;2023-02-13T14:58:07;100622.19;;;5.77;77.69
34235;BME280;20500;49.856;20.290;2023-02-13T15:01:22;100620.01;;;5.74;77.60
34235;BME280;20500;49.856;20.290;2023-02-13T15:04:37;100620.15;;;5.70;77.62
34235;BME280;20500;49.856;20.290;2023-02-13T15:07:49;100617.55;;;5.66;77.68
34235;BME280;20500;49.856;20.290;2023-02-13T15:10:57;100607.32;;;5.63;77.66
34235;BME280;20500;49.856;20.290;2023-02-13T15:14:18;100596.84;;;5.61;77.79
34235;BME280;20500;49.856;20.290;2023-02-13T15:17:27;100594.30;;;5.63;77.78
34235;BME280;20500;49.856;20.290;2023-02-13T15:20:35;100600.87;;;5.65;77.70
34235;BME280;20500;49.856;20.290;2023-02-13T15:23:43;100597.73;;;5.58;77.64
34235;BME280;20500;49.856;20.290;2023-02-13T15:27:05;100598.39;;;5.54;77.65
34235;BME280;20500;49.856;20.290;2023-02-13T15:30:22;100606.52;;;5.52;77.80
34235;BME280;20500;49.856;20.290;2023-02-13T15:33:32;100596.98;;;5.49;77.80
34235;BME280;20500;49.856;20.290;2023-02-13T15:36:47;100592.84;;;5.47;77.84
34235;BME280;20500;49.856;20.290;2023-02-13T15:39:54;100593.38;;;5.45;77.93
34235;BME280;20500;49.856;20.290;2023-02-13T15:43:01;100604.37;;;5.42;77.94
34235;BME280;20500;49.856;20.290;2023-02-13T15:46:17;100609.86;;;5.41;77.98
34235;BME280;20500;49.856;20.290;2023-02-13T15:49:25;100609.68;;;5.41;78.13
34235;BME280;20500;49.856;20.290;2023-02-13T15:52:33;100606.83;;;5.40;78.10
34235;BME280;20500;49.856;20.290;2023-02-13T15:55:44;100605.86;;;5.36;78.17
34235;BME280;20500;49.856;20.290;2023-02-13T15:59:01;100603.13;;;5.34;78.15
34235;BME280;20500;49.856;20.290;2023-02-13T16:02:12;100599.27;;;5.30;78.19
34235;BME280;20500;49.856;20.290;2023-02-13T16:05:20;100599.33;;;5.29;78.30
34235;BME280;20500;49.856;20.290;2023-02-13T16:08:48;100598.17;;;5.25;78.26
34235;BME280;20500;49.856;20.290;2023-02-13T16:12:00;100604.27;;;5.24;78.19
34235;BME280;20500;49.856;20.290;2023-02-13T16:15:15;100608.05;;;5.24;78.34
34235;BME280;20500;49.856;20.290;2023-02-13T16:18:23;100603.02;;;5.21;78.17
34235;BME280;20500;49.856;20.290;2023-02-13T16:21:30;100615.84;;;5.18;78.28
34235;BME280;20500;49.856;20.290;2023-02-13T16:24:39;100618.88;;;5.15;78.37
34235;BME280;20500;49.856;20.290;2023-02-13T16:27:50;100615.04;;;5.16;78.35
34235;BME280;20500;49.856;20.290;2023-02-13T16:30:59;100621.60;;;5.15;78.28
34235;BME280;20500;49.856;20.290;2023-02-13T16:34:18;100622.63;;;5.13;78.32
34235;BME280;20500;49.856;20.290;2023-02-13T16:37:31;100623.30;;;5.11;78.27
34235;BME280;20500;49.856;20.290;2023-02-13T16:40:40;100630.53;;;5.08;78.33
34235;BME280;20500;49.856;20.290;2023-02-13T16:43:47;100636.58;;;5.04;78.39
34235;BME280;20500;49.856;20.290;2023-02-13T16:47:05;100638.21;;;5.02;78.41
34235;BME280;20500;49.856;20.290;2023-02-13T16:50:15;100642.80;;;5.01;78.58